sensor_id;sensor_type;location;lat;lon;timestamp;temperature;humidity
2647;DHT22;1333;50.958;6.770;2023-12-29T00:01:56;11.50;99.90
2647;DHT22;1333;50.958;6.770;2023-12-29T00:04:22;11.50;99.90
2647;DHT22;1333;50.958;6.770;2023-12-29T00:06:47;11.60;99.90
2647;DHT22;1333;50.958;6.770;2023-12-29T00:09:14;11.50;99.90
2647;DHT22;1333;50.958;6.770;2023-12-29T00:11:40;11.60;99.90
2647;DHT22;1333;50.958;6.770;2023-12-29T00:14:05;11.50;99.90
2647;DHT22;1333;50.958;6.770;2023-12-29T00:16:31;11.60;99.90
2647;DHT22;1333;50.958;6.770;2023-12-29T00:18:56;11.60;99.90
2647;DHT22;1333;50.958;6.770;2023-12-29T00:21:22;11.60;99.90
2647;DHT22;1333;50.958;6.770;2023-12-29T00:23:47;11.60;99.90
2647;DHT22;1333;50.958;6.770;2023-12-29T00:26:16;11.60;99.90
2647;DHT22;1333;50.958;6.770;2023-12-29T00:28:42;11.70;99.90
2647;DHT22;1333;50.958;6.770;2023-12-29T00:31:08;11.60;99.90
2647;DHT22;1333;50.958;6.770;2023-12-29T00:33:33;11.60;99.90
2647;DHT22;1333;50.958;6.770;2023-12-29T00:35:59;11.60;99.90
2647;DHT22;1333;50.958;6.770;2023-12-29T00:38:26;11.60;99.90
2647;DHT22;1333;50.958;6.770;2023-12-29T00:40:53;11.70;99.90
2647;DHT22;1333;50.958;6.770;2023-12-29T00:43:18;11.70;99.90
2647;DHT22;1333;50.958;6.770;2023-12-29T00:45:44;11.60;99.90
2647;DHT22;1333;50.958;6.770;2023-12-29T00:48:09;11.60;99.90
2647;DHT22;1333;50.958;6.770;2023-12-29T00:50:35;11.60;99.90
2647;DHT22;1333;50.958;6.770;2023-12-29T00:53:00;11.60;99.90
2647;DHT22;1333;50.958;6.770;2023-12-29T00:55:26;11.60;99.90
2647;DHT22;1333;50.958;6.770;2023-12-29T00:57:51;11.60;99.90
2647;DHT22;1333;50.958;6.770;2023-12-29T01:00:17;11.70;99.90
2647;DHT22;1333;50.958;6.770;2023-12-29T01:02:42;11.60;99.90
2647;DHT22;1333;50.958;6.770;2023-12-29T01:05:08;11.70;99.90
2647;DHT22;1333;50.958;6.770;2023-12-29T01:07:33;11.60;99.90
2647;DHT22;1333;50.958;6.770;2023-12-29T01:09:59;11.60;99.90
2647;DHT22;1333;50.958;6.770;2023-12-29T01:12:25;11.60;99.90
2647;DHT22;1333;50.958;6.770;2023-12-29T01:14:50;11.60;99.90
2647;DHT22;1333;50.958;6.770;2023-12-29T01:17:16;11.60;99.90
2647;DHT22;1333;50.958;6.770;2023-12-29T01:19:41;11.50;99.90
2647;DHT22;1333;50.958;6.770;2023-12-29T01:22:07;11.50;99.90
2647;DHT22;1333;50.958;6.770;2023-12-29T01:24:32;11.40;99.90
2647;DHT22;1333;50.958;6.770;2023-12-29T01:26:58;11.50;99.90
2647;DHT22;1333;50.958;6.770;2023-12-29T01:29:23;11.40;99.90
2647;DHT22;1333;50.958;6.770;2023-12-29T01:31:49;11.40;99.90
2647;DHT22;1333;50.958;6.770;2023-12-29T01:34:15;11.50;99.90
2647;DHT22;1333;50.958;6.770;2023-12-29T01:36:40;11.40;99.90
2647;DHT22;1333;50.958;6.770;2023-12-29T01:39:06;11.50;99.90
2647;DHT22;1333;50.958;6.770;2023-12-29T01:41:31;11.40;99.90
2647;DHT22;1333;50.958;6.770;2023-12-29T01:46:26;11.40;99.90
2647;DHT22;1333;50.958;6.770;2023-12-29T01:48:53;11.50;99.90
2647;DHT22;1333;50.958;6.770;2023-12-29T01:51:21;11.40;99.90
2647;DHT22;1333;50.958;6.770;2023-12-29T01:53:49;11.50;99.90
2647;DHT22;1333;50.958;6.770;2023-12-29T01:56:15;11.50;99.90
2647;DHT22;1333;50.958;6.770;2023-12-29T01:58:40;11.50;99.90
2647;DHT22;1333;50.958;6.770;2023-12-29T02:01:07;11.50;99.90
2647;DHT22;1333;50.958;6.770;2023-12-29T02:03:33;11.50;99.90
2647;DHT22;1333;50.958;6.770;2023-12-29T02:05:59;11.50;99.90
2647;DHT22;1333;50.958;6.770;2023-12-29T02:08:25;11.50;99.90
2647;DHT22;1333;50.958;6.770;2023-12-29T02:10:51;11.50;99.90
2647;DHT22;1333;50.958;6.770;2023-12-29T02:13:16;11.50;99.90
2647;DHT22;1333;50.958;6.770;2023-12-29T02:15:42;11.50;99.90
2647;DHT22;1333;50.958;6.770;2023-12-29T02:18:11;11.50;99.90
2647;DHT22;1333;50.958;6.770;2023-12-29T02:20:40;11.50;99.90
2647;DHT22;1333;50.958;6.770;2023-12-29T02:23:06;11.50;99.90
2647;DHT22;1333;50.958;6.770;2023-12-29T02:25:32;11.50;99.90
2647;DHT22;1333;50.958;6.770;2023-12-29T02:28:20;11.50;99.90
2647;DHT22;1333;50.958;6.770;2023-12-29T02:30:56;11.50;99.90
2647;DHT22;1333;50.958;6.770;2023-12-29T02:33:26;11.50;99.90
2647;DHT22;1333;50.958;6.770;2023-12-29T02:35:56;11.50;99.90
2647;DHT22;1333;50.958;6.770;2023-12-29T02:38:24;11.50;99.90
2647;DHT22;1333;50.958;6.770;2023-12-29T02:40:55;11.50;99.90
2647;DHT22;1333;50.958;6.770;2023-12-29T02:43:20;11.50;99.90
2647;DHT22;1333;50.958;6.770;2023-12-29T02:45:46;11.60;99.90
2647;DHT22;1333;50.958;6.770;2023-12-29T02:48:11;11.50;99.90
2647;DHT22;1333;50.958;6.770;2023-12-29T02:50:37;11.50;99.90
2647;DHT22;1333;50.958;6.770;2023-12-29T02:53:03;11.50;99.90
2647;DHT22;1333;50.958;6.770;2023-12-29T02:55:29;11.40;99.90
2647;DHT22;1333;50.958;6.770;2023-12-29T02:57:55;11.50;99.90
2647;DHT22;1333;50.958;6.770;2023-12-29T03:00:20;11.50;99.90
2647;DHT22;1333;50.958;6.770;2023-12-29T03:02:46;11.50;99.90
2647;DHT22;1333;50.958;6.770;2023-12-29T03:05:11;11.40;99.90
2647;DHT22;1333;50.958;6.770;2023-12-29T03:07:37;11.40;99.90
2647;DHT22;1333;50.958;6.770;2023-12-29T03:10:03;11.50;99.90
2647;DHT22;1333;50.958;6.770;2023-12-29T03:12:28;11.50;99.90
2647;DHT22;1333;50.958;6.770;2023-12-29T03:14:56;11.50;99.90
2647;DHT22;1333;50.958;6.770;2023-12-29T03:17:21;11.50;99.90
2647;DHT22;1333;50.958;6.770;2023-12-29T03:19:47;11.50;99.90
2647;DHT22;1333;50.958;6.770;2023-12-29T03:22:13;11.50;99.90
2647;DHT22;1333;50.958;6.770;2023-12-29T03:24:40;11.50;99.90
2647;DHT22;1333;50.958;6.770;2023-12-29T03:27:06;11.50;99.90
2647;DHT22;1333;50.958;6.770;2023-12-29T03:29:32;11.50;99.90
2647;DHT22;1333;50.958;6.770;2023-12-29T03:31:57;11.50;99.90
2647;DHT22;1333;50.958;6.770;2023-12-29T03:34:23;11.50;99.90
2647;DHT22;1333;50.958;6.770;2023-12-29T03:36:48;11.50;99.90
2647;DHT22;1333;50.958;6.770;2023-12-29T03:39:14;11.50;99.90
2647;DHT22;1333;50.958;6.770;2023-12-29T03:41:40;11.50;99.90
2647;DHT22;1333;50.958;6.770;2023-12-29T03:44:05;11.50;99.90
2647;DHT22;1333;50.958;6.770;2023-12-29T03:46:31;11.50;99.90
2647;DHT22;1333;50.958;6.770;2023-12-29T03:48:58;11.40;99.90
2647;DHT22;1333;50.958;6.770;2023-12-29T03:51:23;11.50;99.90
2647;DHT22;1333;50.958;6.770;2023-12-29T03:53:49;11.40;99.90
2647;DHT22;1333;50.958;6.770;2023-12-29T03:56:16;11.40;99.90
2647;DHT22;1333;50.958;6.770;2023-12-29T03:58:42;11.40;99.90
2647;DHT22;1333;50.958;6.770;2023-12-29T04:01:12;11.40;99.90
2647;DHT22;1333;50.958;6.770;2023-12-29T04:03:38;11.40;99.90
2647;DHT22;1333;50.958;6.770;2023-12-29T04:06:04;11.40;99.90
2647;DHT22;1333;50.958;6.770;2023-12-29T04:08:30;11.40;99.90
2647;DHT22;1333;50.958;6.770;2023-12-29T04:10:56;11.30;99.90
2647;DHT22;1333;50.958;6.770;2023-12-29T04:13:22;11.40;99.90
2647;DHT22;1333;50.958;6.770;2023-12-29T04:15:47;11.30;99.90
2647;DHT22;1333;50.958;6.770;2023-12-29T04:18:13;11.30;99.90
2647;DHT22;1333;50.958;6.770;2023-12-29T04:20:38;11.30;99.90
2647;DHT22;1333;50.958;6.770;2023-12-29T04:23:06;11.30;99.90
2647;DHT22;1333;50.958;6.770;2023-12-29T04:25:32;11.30;99.90
2647;DHT22;1333;50.958;6.770;2023-12-29T04:27:57;11.30;99.90
2647;DHT22;1333;50.958;6.770;2023-12-29T04:30:23;11.20;99.90
2647;DHT22;1333;50.958;6.770;2023-12-29T04:32:49;11.30;99.90
2647;DHT22;1333;50.958;6.770;2023-12-29T04:35:14;11.30;99.90
2647;DHT22;1333;50.958;6.770;2023-12-29T04:37:42;11.30;99.90
2647;DHT22;1333;50.958;6.770;2023-12-29T04:40:08;11.30;99.90
2647;DHT22;1333;50.958;6.770;2023-12-29T04:42:33;11.40;99.90
2647;DHT22;1333;50.958;6.770;2023-12-29T04:44:59;11.40;99.90
2647;DHT22;1333;50.958;6.770;2023-12-29T04:47:24;11.40;99.90
2647;DHT22;1333;50.958;6.770;2023-12-29T04:49:50;11.40;99.90
2647;DHT22;1333;50.958;6.770;2023-12-29T04:52:15;11.40;99.90
2647;DHT22;1333;50.958;6.770;2023-12-29T04:54:41;11.40;99.90
2647;DHT22;1333;50.958;6.770;2023-12-29T04:57:06;11.40;99.90
2647;DHT22;1333;50.958;6.770;2023-12-29T04:59:32;11.40;99.90
2647;DHT22;1333;50.958;6.770;2023-12-29T05:01:57;11.40;99.90
2647;DHT22;1333;50.958;6.770;2023-12-29T05:04:23;11.30;99.90
2647;DHT22;1333;50.958;6.770;2023-12-29T05:06:48;11.40;99.90
2647;DHT22;1333;50.958;6.770;2023-12-29T05:09:14;11.30;99.90
2647;DHT22;1333;50.958;6.770;2023-12-29T05:11:39;11.30;99.90
2647;DHT22;1333;50.958;6.770;2023-12-29T05:14:05;11.30;99.90
2647;DHT22;1333;50.958;6.770;2023-12-29T05:16:31;11.20;99.90
2647;DHT22;1333;50.958;6.770;2023-12-29T05:18:56;11.10;99.90
2647;DHT22;1333;50.958;6.770;2023-12-29T05:21:22;11.10;99.90
2647;DHT22;1333;50.958;6.770;2023-12-29T05:23:49;11.00;99.90
2647;DHT22;1333;50.958;6.770;2023-12-29T05:26:15;11.00;99.90
2647;DHT22;1333;50.958;6.770;2023-12-29T05:28:40;10.90;99.90
2647;DHT22;1333;50.958;6.770;2023-12-29T05:31:06;11.00;99.90
2647;DHT22;1333;50.958;6.770;2023-12-29T05:33:32;10.90;99.90
2647;DHT22;1333;50.958;6.770;2023-12-29T05:35:59;10.80;99.90
2647;DHT22;1333;50.958;6.770;2023-12-29T05:38:25;10.70;99.90
2647;DHT22;1333;50.958;6.770;2023-12-29T05:40:51;10.80;99.90
2647;DHT22;1333;50.958;6.770;2023-12-29T05:43:17;10.80;99.90
2647;DHT22;1333;50.958;6.770;2023-12-29T05:45:43;10.80;99.90
2647;DHT22;1333;50.958;6.770;2023-12-29T05:48:08;10.70;99.90
2647;DHT22;1333;50.958;6.770;2023-12-29T05:50:35;10.70;99.90
2647;DHT22;1333;50.958;6.770;2023-12-29T05:53:00;10.70;99.90
2647;DHT22;1333;50.958;6.770;2023-12-29T05:55:26;10.70;99.90
2647;DHT22;1333;50.958;6.770;2023-12-29T05:57:52;10.60;99.90
2647;DHT22;1333;50.958;6.770;2023-12-29T06:00:18;10.60;99.90
2647;DHT22;1333;50.958;6.770;2023-12-29T06:02:44;10.60;99.90
2647;DHT22;1333;50.958;6.770;2023-12-29T06:05:12;10.60;99.90
2647;DHT22;1333;50.958;6.770;2023-12-29T06:07:38;10.60;99.90
2647;DHT22;1333;50.958;6.770;2023-12-29T06:10:04;10.60;99.90
2647;DHT22;1333;50.958;6.770;2023-12-29T06:12:30;10.50;99.90
2647;DHT22;1333;50.958;6.770;2023-12-29T06:14:56;10.50;99.90
2647;DHT22;1333;50.958;6.770;2023-12-29T06:17:21;10.60;99.90
2647;DHT22;1333;50.958;6.770;2023-12-29T06:19:47;10.50;99.90
2647;DHT22;1333;50.958;6.770;2023-12-29T06:22:12;10.50;99.90
2647;DHT22;1333;50.958;6.770;2023-12-29T06:24:41;10.50;99.90
2647;DHT22;1333;50.958;6.770;2023-12-29T06:27:08;10.50;99.90
2647;DHT22;1333;50.958;6.770;2023-12-29T06:29:34;10.50;99.90
2647;DHT22;1333;50.958;6.770;2023-12-29T06:32:00;10.50;99.90
2647;DHT22;1333;50.958;6.770;2023-12-29T06:34:26;10.50;99.90
2647;DHT22;1333;50.958;6.770;2023-12-29T06:36:51;10.60;99.90
2647;DHT22;1333;50.958;6.770;2023-12-29T06:39:17;10.60;99.90
2647;DHT22;1333;50.958;6.770;2023-12-29T06:41:43;10.60;99.90
2647;DHT22;1333;50.958;6.770;2023-12-29T06:44:08;10.60;99.90
2647;DHT22;1333;50.958;6.770;2023-12-29T06:46:36;10.70;99.90
2647;DHT22;1333;50.958;6.770;2023-12-29T06:49:01;10.70;99.90
2647;DHT22;1333;50.958;6.770;2023-12-29T06:51:28;10.70;99.90
2647;DHT22;1333;50.958;6.770;2023-12-29T06:53:54;10.70;99.90
2647;DHT22;1333;50.958;6.770;2023-12-29T06:56:20;10.70;99.90
2647;DHT22;1333;50.958;6.770;2023-12-29T06:58:46;10.80;99.90
2647;DHT22;1333;50.958;6.770;2023-12-29T07:01:11;10.80;99.90
2647;DHT22;1333;50.958;6.770;2023-12-29T07:03:37;10.80;99.90
2647;DHT22;1333;50.958;6.770;2023-12-29T07:06:03;10.90;99.90
2647;DHT22;1333;50.958;6.770;2023-12-29T07:08:29;10.90;99.90
2647;DHT22;1333;50.958;6.770;2023-12-29T07:10:54;10.90;99.90
2647;DHT22;1333;50.958;6.770;2023-12-29T07:13:20;10.90;99.90
2647;DHT22;1333;50.958;6.770;2023-12-29T07:15:47;10.90;99.90
2647;DHT22;1333;50.958;6.770;2023-12-29T07:18:13;10.90;99.90
2647;DHT22;1333;50.958;6.770;2023-12-29T07:20:39;10.90;99.90
2647;DHT22;1333;50.958;6.770;2023-12-29T07:23:04;10.80;99.90
2647;DHT22;1333;50.958;6.770;2023-12-29T07:25:30;10.90;99.90
2647;DHT22;1333;50.958;6.770;2023-12-29T07:27:56;10.80;99.90
2647;DHT22;1333;50.958;6.770;2023-12-29T07:30:21;10.80;99.90
2647;DHT22;1333;50.958;6.770;2023-12-29T07:32:47;10.80;99.90
2647;DHT22;1333;50.958;6.770;2023-12-29T07:35:13;10.80;99.90
2647;DHT22;1333;50.958;6.770;2023-12-29T07:37:45;10.80;99.90
2647;DHT22;1333;50.958;6.770;2023-12-29T07:40:12;10.90;99.90
2647;DHT22;1333;50.958;6.770;2023-12-29T07:42:39;10.90;99.90
2647;DHT22;1333;50.958;6.770;2023-12-29T07:45:05;11.00;99.90
2647;DHT22;1333;50.958;6.770;2023-12-29T07:47:31;11.10;99.90
2647;DHT22;1333;50.958;6.770;2023-12-29T07:49:57;11.10;99.90
2647;DHT22;1333;50.958;6.770;2023-12-29T07:52:22;11.10;99.90
2647;DHT22;1333;50.958;6.770;2023-12-29T07:54:48;11.10;99.90
2647;DHT22;1333;50.958;6.770;2023-12-29T07:57:14;11.10;99.90
2647;DHT22;1333;50.958;6.770;2023-12-29T07:59:40;11.10;99.90
2647;DHT22;1333;50.958;6.770;2023-12-29T08:02:06;11.00;99.90
2647;DHT22;1333;50.958;6.770;2023-12-29T08:04:31;11.10;99.90
2647;DHT22;1333;50.958;6.770;2023-12-29T08:06:57;11.10;99.90
2647;DHT22;1333;50.958;6.770;2023-12-29T08:09:23;11.10;99.90
2647;DHT22;1333;50.958;6.770;2023-12-29T08:11:49;11.10;99.90
2647;DHT22;1333;50.958;6.770;2023-12-29T08:14:14;11.20;99.90
2647;DHT22;1333;50.958;6.770;2023-12-29T08:16:40;11.10;99.90
2647;DHT22;1333;50.958;6.770;2023-12-29T08:19:06;10.90;99.90
2647;DHT22;1333;50.958;6.770;2023-12-29T08:21:32;10.80;99.90
2647;DHT22;1333;50.958;6.770;2023-12-29T08:23:58;10.60;99.90
2647;DHT22;1333;50.958;6.770;2023-12-29T08:26:23;10.50;99.90
2647;DHT22;1333;50.958;6.770;2023-12-29T08:28:49;10.50;99.90
2647;DHT22;1333;50.958;6.770;2023-12-29T08:31:15;10.40;99.90
2647;DHT22;1333;50.958;6.770;2023-12-29T08:33:41;10.40;99.90
2647;DHT22;1333;50.958;6.770;2023-12-29T08:36:07;10.40;99.90
2647;DHT22;1333;50.958;6.770;2023-12-29T08:38:32;10.40;99.90
2647;DHT22;1333;50.958;6.770;2023-12-29T08:40:59;10.40;99.90
2647;DHT22;1333;50.958;6.770;2023-12-29T08:43:25;10.20;99.90
2647;DHT22;1333;50.958;6.770;2023-12-29T08:45:50;10.20;99.90
2647;DHT22;1333;50.958;6.770;2023-12-29T08:48:16;10.30;99.90
2647;DHT22;1333;50.958;6.770;2023-12-29T08:50:42;10.30;99.90
2647;DHT22;1333;50.958;6.770;2023-12-29T08:53:10;10.30;99.90
2647;DHT22;1333;50.958;6.770;2023-12-29T08:55:36;10.30;99.90
2647;DHT22;1333;50.958;6.770;2023-12-29T08:58:01;10.30;99.90
2647;DHT22;1333;50.958;6.770;2023-12-29T09:00:27;10.40;99.90
2647;DHT22;1333;50.958;6.770;2023-12-29T09:02:55;10.40;99.90
2647;DHT22;1333;50.958;6.770;2023-12-29T09:05:21;10.40;99.90
2647;DHT22;1333;50.958;6.770;2023-12-29T09:07:46;10.40;99.90
2647;DHT22;1333;50.958;6.770;2023-12-29T09:10:12;10.40;99.90
2647;DHT22;1333;50.958;6.770;2023-12-29T09:12:38;10.40;99.90
2647;DHT22;1333;50.958;6.770;2023-12-29T09:15:05;10.40;99.90
2647;DHT22;1333;50.958;6.770;2023-12-29T09:17:31;10.30;99.90
2647;DHT22;1333;50.958;6.770;2023-12-29T09:19:56;10.30;99.90
2647;DHT22;1333;50.958;6.770;2023-12-29T09:22:22;10.30;99.90
2647;DHT22;1333;50.958;6.770;2023-12-29T09:24:47;10.20;99.90
2647;DHT22;1333;50.958;6.770;2023-12-29T09:27:13;10.20;99.90
2647;DHT22;1333;50.958;6.770;2023-12-29T09:29:39;10.20;99.90
2647;DHT22;1333;50.958;6.770;2023-12-29T09:32:05;10.20;99.90
2647;DHT22;1333;50.958;6.770;2023-12-29T09:34:31;10.20;99.90
2647;DHT22;1333;50.958;6.770;2023-12-29T09:36:56;10.20;99.90
2647;DHT22;1333;50.958;6.770;2023-12-29T09:39:22;10.30;99.90
2647;DHT22;1333;50.958;6.770;2023-12-29T09:41:51;10.30;99.90
2647;DHT22;1333;50.958;6.770;2023-12-29T09:44:20;10.30;99.90
2647;DHT22;1333;50.958;6.770;2023-12-29T09:46:50;10.40;99.90
2647;DHT22;1333;50.958;6.770;2023-12-29T09:49:18;10.50;99.90
2647;DHT22;1333;50.958;6.770;2023-12-29T09:51:44;10.50;99.90
2647;DHT22;1333;50.958;6.770;2023-12-29T09:54:10;10.60;99.90
2647;DHT22;1333;50.958;6.770;2023-12-29T09:56:37;10.60;99.90
2647;DHT22;1333;50.958;6.770;2023-12-29T09:59:03;10.70;99.90
2647;DHT22;1333;50.958;6.770;2023-12-29T10:01:29;10.80;99.90
2647;DHT22;1333;50.958;6.770;2023-12-29T10:03:59;10.90;99.90
2647;DHT22;1333;50.958;6.770;2023-12-29T10:06:25;11.10;99.90
2647;DHT22;1333;50.958;6.770;2023-12-29T10:08:51;11.10;99.90
2647;DHT22;1333;50.958;6.770;2023-12-29T10:11:18;11.20;99.90
2647;DHT22;1333;50.958;6.770;2023-12-29T10:13:48;11.20;99.90
2647;DHT22;1333;50.958;6.770;2023-12-29T10:16:36;11.20;99.90
2647;DHT22;1333;50.958;6.770;2023-12-29T10:21:59;11.30;99.90
2647;DHT22;1333;50.958;6.770;2023-12-29T10:24:29;11.40;99.90
2647;DHT22;1333;50.958;6.770;2023-12-29T10:26:55;11.50;99.90
2647;DHT22;1333;50.958;6.770;2023-12-29T10:29:21;11.70;99.90
2647;DHT22;1333;50.958;6.770;2023-12-29T10:31:47;11.70;99.90
2647;DHT22;1333;50.958;6.770;2023-12-29T10:34:23;11.80;99.90
2647;DHT22;1333;50.958;6.770;2023-12-29T10:36:56;11.70;99.90
2647;DHT22;1333;50.958;6.770;2023-12-29T10:39:22;11.80;99.90
2647;DHT22;1333;50.958;6.770;2023-12-29T10:41:48;11.80;99.90
2647;DHT22;1333;50.958;6.770;2023-12-29T10:44:13;11.80;99.90
2647;DHT22;1333;50.958;6.770;2023-12-29T10:46:39;11.70;99.90
2647;DHT22;1333;50.958;6.770;2023-12-29T10:49:11;11.60;99.90
2647;DHT22;1333;50.958;6.770;2023-12-29T10:51:37;11.60;99.90
2647;DHT22;1333;50.958;6.770;2023-12-29T10:54:03;11.70;99.90
2647;DHT22;1333;50.958;6.770;2023-12-29T10:56:30;11.70;99.90
2647;DHT22;1333;50.958;6.770;2023-12-29T10:59:03;11.80;99.90
2647;DHT22;1333;50.958;6.770;2023-12-29T11:01:34;11.90;99.90
2647;DHT22;1333;50.958;6.770;2023-12-29T11:04:01;11.90;99.90
2647;DHT22;1333;50.958;6.770;2023-12-29T11:06:27;11.90;99.90
2647;DHT22;1333;50.958;6.770;2023-12-29T11:08:56;11.90;99.90
2647;DHT22;1333;50.958;6.770;2023-12-29T11:11:23;12.00;99.90
2647;DHT22;1333;50.958;6.770;2023-12-29T11:13:49;12.00;99.90
2647;DHT22;1333;50.958;6.770;2023-12-29T11:16:16;12.00;99.90
2647;DHT22;1333;50.958;6.770;2023-12-29T11:18:43;12.20;99.90
2647;DHT22;1333;50.958;6.770;2023-12-29T11:21:10;12.30;99.90
2647;DHT22;1333;50.958;6.770;2023-12-29T11:23:37;12.30;99.90
2647;DHT22;1333;50.958;6.770;2023-12-29T11:26:04;12.40;99.90
2647;DHT22;1333;50.958;6.770;2023-12-29T11:28:35;12.50;99.90
2647;DHT22;1333;50.958;6.770;2023-12-29T11:31:02;12.70;99.90
2647;DHT22;1333;50.958;6.770;2023-12-29T11:33:34;12.70;99.90
2647;DHT22;1333;50.958;6.770;2023-12-29T11:36:15;12.80;99.90
2647;DHT22;1333;50.958;6.770;2023-12-29T11:38:49;12.90;99.90
2647;DHT22;1333;50.958;6.770;2023-12-29T11:41:33;12.80;99.90
2647;DHT22;1333;50.958;6.770;2023-12-29T11:44:01;12.80;99.90
2647;DHT22;1333;50.958;6.770;2023-12-29T11:46:43;12.90;99.90
2647;DHT22;1333;50.958;6.770;2023-12-29T11:49:12;13.00;99.90
2647;DHT22;1333;50.958;6.770;2023-12-29T11:51:41;13.10;99.90
2647;DHT22;1333;50.958;6.770;2023-12-29T11:54:10;13.10;99.90
2647;DHT22;1333;50.958;6.770;2023-12-29T11:56:46;12.90;99.90
2647;DHT22;1333;50.958;6.770;2023-12-29T11:59:13;12.80;99.90
2647;DHT22;1333;50.958;6.770;2023-12-29T12:01:39;12.80;99.90
2647;DHT22;1333;50.958;6.770;2023-12-29T12:04:38;12.70;99.90
2647;DHT22;1333;50.958;6.770;2023-12-29T12:07:44;12.80;99.90
2647;DHT22;1333;50.958;6.770;2023-12-29T12:12:58;12.80;99.90
2647;DHT22;1333;50.958;6.770;2023-12-29T12:17:54;12.80;99.90
2647;DHT22;1333;50.958;6.770;2023-12-29T12:20:20;12.70;99.90
2647;DHT22;1333;50.958;6.770;2023-12-29T12:22:58;12.60;99.90
2647;DHT22;1333;50.958;6.770;2023-12-29T12:25:27;12.50;99.90
2647;DHT22;1333;50.958;6.770;2023-12-29T12:27:56;12.60;99.90
2647;DHT22;1333;50.958;6.770;2023-12-29T12:30:22;12.40;99.90
2647;DHT22;1333;50.958;6.770;2023-12-29T12:32:57;12.40;99.90
2647;DHT22;1333;50.958;6.770;2023-12-29T12:35:23;12.40;99.90
2647;DHT22;1333;50.958;6.770;2023-12-29T12:38:07;12.30;99.90
2647;DHT22;1333;50.958;6.770;2023-12-29T12:40:33;12.40;99.90
2647;DHT22;1333;50.958;6.770;2023-12-29T12:42:58;12.40;99.90
2647;DHT22;1333;50.958;6.770;2023-12-29T12:45:26;12.40;99.90
2647;DHT22;1333;50.958;6.770;2023-12-29T12:48:00;12.40;99.90
2647;DHT22;1333;50.958;6.770;2023-12-29T12:50:27;12.40;99.90
2647;DHT22;1333;50.958;6.770;2023-12-29T12:52:52;12.40;99.90
2647;DHT22;1333;50.958;6.770;2023-12-29T12:55:18;12.40;99.90
2647;DHT22;1333;50.958;6.770;2023-12-29T12:57:45;12.40;99.90
2647;DHT22;1333;50.958;6.770;2023-12-29T13:00:11;12.40;99.90
2647;DHT22;1333;50.958;6.770;2023-12-29T13:02:36;12.40;99.90
2647;DHT22;1333;50.958;6.770;2023-12-29T13:05:02;12.40;99.90
2647;DHT22;1333;50.958;6.770;2023-12-29T13:07:33;12.40;99.90
2647;DHT22;1333;50.958;6.770;2023-12-29T13:09:59;12.30;99.90
2647;DHT22;1333;50.958;6.770;2023-12-29T13:12:24;12.30;99.90
2647;DHT22;1333;50.958;6.770;2023-12-29T13:14:50;12.20;99.90
2647;DHT22;1333;50.958;6.770;2023-12-29T13:17:17;12.20;99.90
2647;DHT22;1333;50.958;6.770;2023-12-29T13:19:43;12.20;99.90
2647;DHT22;1333;50.958;6.770;2023-12-29T13:22:10;12.10;99.90
2647;DHT22;1333;50.958;6.770;2023-12-29T13:24:43;12.10;99.90
2647;DHT22;1333;50.958;6.770;2023-12-29T13:27:08;12.10;99.90
2647;DHT22;1333;50.958;6.770;2023-12-29T13:29:35;12.00;99.90
2647;DHT22;1333;50.958;6.770;2023-12-29T13:32:12;12.00;99.90
2647;DHT22;1333;50.958;6.770;2023-12-29T13:35:03;12.10;99.90
2647;DHT22;1333;50.958;6.770;2023-12-29T13:37:44;12.10;99.90
2647;DHT22;1333;50.958;6.770;2023-12-29T13:40:22;12.00;99.90
2647;DHT22;1333;50.958;6.770;2023-12-29T13:42:48;12.10;99.90
2647;DHT22;1333;50.958;6.770;2023-12-29T13:45:16;12.10;99.90
2647;DHT22;1333;50.958;6.770;2023-12-29T13:47:43;12.10;99.90
2647;DHT22;1333;50.958;6.770;2023-12-29T13:50:10;12.00;99.90
2647;DHT22;1333;50.958;6.770;2023-12-29T13:52:38;12.00;99.90
2647;DHT22;1333;50.958;6.770;2023-12-29T13:55:05;12.10;99.90
2647;DHT22;1333;50.958;6.770;2023-12-29T13:57:35;11.90;99.90
2647;DHT22;1333;50.958;6.770;2023-12-29T14:00:20;11.80;99.90
2647;DHT22;1333;50.958;6.770;2023-12-29T14:05:27;11.50;99.90
2647;DHT22;1333;50.958;6.770;2023-12-29T14:10:35;11.20;99.90
2647;DHT22;1333;50.958;6.770;2023-12-29T14:13:11;11.00;99.90
2647;DHT22;1333;50.958;6.770;2023-12-29T14:15:42;11.10;99.90
2647;DHT22;1333;50.958;6.770;2023-12-29T14:20:54;10.90;99.90
2647;DHT22;1333;50.958;6.770;2023-12-29T14:23:20;10.90;99.90
2647;DHT22;1333;50.958;6.770;2023-12-29T14:25:46;11.00;99.90
2647;DHT22;1333;50.958;6.770;2023-12-29T14:28:19;10.90;99.90
2647;DHT22;1333;50.958;6.770;2023-12-29T14:30:45;10.80;99.90
2647;DHT22;1333;50.958;6.770;2023-12-29T14:33:11;10.90;99.90
2647;DHT22;1333;50.958;6.770;2023-12-29T14:35:37;10.80;99.90
2647;DHT22;1333;50.958;6.770;2023-12-29T14:38:03;10.80;99.90
2647;DHT22;1333;50.958;6.770;2023-12-29T14:40:29;10.80;99.90
2647;DHT22;1333;50.958;6.770;2023-12-29T14:42:54;10.80;99.90
2647;DHT22;1333;50.958;6.770;2023-12-29T14:45:20;10.80;99.90
2647;DHT22;1333;50.958;6.770;2023-12-29T14:47:46;10.90;99.90
2647;DHT22;1333;50.958;6.770;2023-12-29T14:50:12;10.90;99.90
2647;DHT22;1333;50.958;6.770;2023-12-29T14:52:38;10.90;99.90
2647;DHT22;1333;50.958;6.770;2023-12-29T14:55:04;10.90;99.90
2647;DHT22;1333;50.958;6.770;2023-12-29T14:57:29;10.90;99.90
2647;DHT22;1333;50.958;6.770;2023-12-29T14:59:55;10.90;99.90
2647;DHT22;1333;50.958;6.770;2023-12-29T15:02:21;10.90;99.90
2647;DHT22;1333;50.958;6.770;2023-12-29T15:04:46;11.00;99.90
2647;DHT22;1333;50.958;6.770;2023-12-29T15:07:14;11.00;99.90
2647;DHT22;1333;50.958;6.770;2023-12-29T15:09:40;11.00;99.90
2647;DHT22;1333;50.958;6.770;2023-12-29T15:12:05;11.10;99.90
2647;DHT22;1333;50.958;6.770;2023-12-29T15:14:31;11.10;99.90
2647;DHT22;1333;50.958;6.770;2023-12-29T15:16:56;11.10;99.90
2647;DHT22;1333;50.958;6.770;2023-12-29T15:19:22;11.10;99.90
2647;DHT22;1333;50.958;6.770;2023-12-29T15:21:47;11.20;99.90
2647;DHT22;1333;50.958;6.770;2023-12-29T15:24:13;11.20;99.90
2647;DHT22;1333;50.958;6.770;2023-12-29T15:26:39;11.20;99.90
2647;DHT22;1333;50.958;6.770;2023-12-29T15:29:05;11.30;99.90
2647;DHT22;1333;50.958;6.770;2023-12-29T15:31:30;11.30;99.90
2647;DHT22;1333;50.958;6.770;2023-12-29T15:33:56;11.30;99.90
2647;DHT22;1333;50.958;6.770;2023-12-29T15:36:21;11.30;99.90
2647;DHT22;1333;50.958;6.770;2023-12-29T15:38:51;11.20;99.90
2647;DHT22;1333;50.958;6.770;2023-12-29T15:41:17;11.20;99.90
2647;DHT22;1333;50.958;6.770;2023-12-29T15:43:43;11.20;99.90
2647;DHT22;1333;50.958;6.770;2023-12-29T15:46:17;11.20;99.90
2647;DHT22;1333;50.958;6.770;2023-12-29T15:48:43;11.20;99.90
2647;DHT22;1333;50.958;6.770;2023-12-29T15:51:09;11.20;99.90
2647;DHT22;1333;50.958;6.770;2023-12-29T15:53:35;11.10;99.90
2647;DHT22;1333;50.958;6.770;2023-12-29T15:56:01;11.20;99.90
2647;DHT22;1333;50.958;6.770;2023-12-29T15:58:30;11.10;99.90
2647;DHT22;1333;50.958;6.770;2023-12-29T16:00:56;11.10;99.90
2647;DHT22;1333;50.958;6.770;2023-12-29T16:03:21;11.10;99.90
2647;DHT22;1333;50.958;6.770;2023-12-29T16:05:47;11.00;99.90
2647;DHT22;1333;50.958;6.770;2023-12-29T16:08:12;11.00;99.90
2647;DHT22;1333;50.958;6.770;2023-12-29T16:10:38;11.10;99.90
2647;DHT22;1333;50.958;6.770;2023-12-29T16:13:04;11.10;99.90
2647;DHT22;1333;50.958;6.770;2023-12-29T16:15:29;11.10;99.90
2647;DHT22;1333;50.958;6.770;2023-12-29T16:17:55;11.10;99.90
2647;DHT22;1333;50.958;6.770;2023-12-29T16:20:21;11.10;99.90